Aeroporto :
LOGIN :

Iscrizione | Disclaimer

   EN    FR    IT 

 










Sommario :    VFR   VFR Marginale   IFR   IFR Intensivo   IFR Molto Intensivo
Visibilità : 
Base nubi : 
>= 8 km
>= 3000ft
5 / 8 km
1000 / 3000 ft
1500m / 5 km
500 / 1000 ft
800 / 1500m
200 / 500 ft
< 800m
< 200 ft
Simboli :   Temporali  Nebbia  Neve Forte  Precipitazioni Forti  Vento > 20 kt
SIGMETs :   Varie  Temporali  Ghiacco  Turbolenza  Onda orograficha  Ceneri Vulcaniche






- Altitudine del aeroporto : 1768 ft


LEHC - Huesca Pirineos

ULTIMO METAR :
  • 190100Z AUTO 02003KT 350V070 9999 -RA SCT020 OVC027 05/05 Q1018

METARs OBSOLETI :
  • 190030Z AUTO 07005KT 030V100 9999 -RA BKN027 OVC033 06/05 Q1018
  • 190000Z AUTO 05005KT 020V080 9999 -RA OVC031 05/05 Q1018 RERA
  • 182330Z AUTO 12004KT 080V160 6000 RA BKN028 OVC033 05/05 Q1019 RERA
  • 182300Z AUTO 11003KT 070V160 9999 4100SE RA OVC033 06/04 Q1019
  • 182230Z AUTO 08009KT 9999 -RA OVC036 06/04 Q1018
  • 182200Z AUTO 07008KT 040V100 9999 OVC035 06/03 Q1018

TAF TAF LEHC
Valido dal 18 a 15 ore il 19 a 15 ore UTC


181400Z 1815/1915 08009KT 9999 FEW030 TX07/1914Z TNM01/1906Z
PROB30
TEMPO 1817/1908 4000 SNRA



MetMap, La meteo Aeronautica in un colpo d'occhio ! - Copyright ORBIFLY Dicembre 2007 - Disclaimer

ORBIFLY MET'MAP TEAM :

Programmazione e sviluppo : Alexandra Zaïnal
Concezione : Baudouin d'Aumeries
Aiuto per la programmazione : Marc-Olivier Méhu
Supporto tecnico e logistico : Manuel Goepfert
Aiuto per la traduzione : Arnaldo La Scala

Contatto : metmap@orbifly.com




FONTI E CREDITI :

   NOAA